Time,TemperatureF,DewpointF,PressureIn,WindDirection,WindDirectionDegrees,WindSpeedMPH,WindSpeedGustMPH,Humidity,HourlyPrecipIn,Conditions,Clouds,dailyrainin,SoftwareType,DateUTC
2013-02-16 00:01:00,30.4,13.5,27.73,NE,36,0.0,0.0,49,0.00,,---,0.00,VWS V14.01,2013-02-16 08:01:00,
2013-02-16 00:06:00,30.6,13.7,27.73,NNE,25,0.0,0.0,49,0.00,,---,0.00,VWS V14.01,2013-02-16 08:06:00,
2013-02-16 00:11:00,30.7,13.9,27.73,North,11,0.0,0.0,49,0.00,,---,0.00,VWS V14.01,2013-02-16 08:11:00,
2013-02-16 00:16:00,30.6,14.1,27.73,North,7,0.0,0.0,50,0.00,,---,0.00,VWS V14.01,2013-02-16 08:16:00,
2013-02-16 00:21:00,30.4,14.0,27.73,North,7,0.0,0.0,50,0.00,,---,0.00,VWS V14.01,2013-02-16 08:21:00,
2013-02-16 00:26:00,30.4,14.0,27.73,North,7,0.0,0.0,50,0.00,,---,0.00,VWS V14.01,2013-02-16 08:26:00,
2013-02-16 00:31:00,30.4,14.0,27.73,North,7,0.0,0.0,50,0.00,,---,0.00,VWS V14.01,2013-02-16 08:31:00,
2013-02-16 00:36:00,30.4,14.4,27.73,NE,39,0.0,0.0,51,0.00,,---,0.00,VWS V14.01,2013-02-16 08:36:00,
2013-02-16 00:41:00,30.7,14.8,27.73,NE,39,0.0,0.0,51,0.00,,---,0.00,VWS V14.01,2013-02-16 08:41:00,
2013-02-16 00:46:00,30.7,14.8,27.73,NE,39,0.0,0.0,51,0.00,,---,0.00,VWS V14.01,2013-02-16 08:46:00,
2013-02-16 00:51:00,30.9,14.9,27.70,NE,39,0.0,0.0,51,0.00,,---,0.00,VWS V14.01,2013-02-16 08:51:00,
2013-02-16 00:56:00,30.4,13.1,27.70,NE,39,0.0,0.0,48,0.00,,---,0.00,VWS V14.01,2013-02-16 08:56:00,
2013-02-16 01:01:00,30.2,12.9,27.70,NE,39,0.0,0.0,48,0.00,,---,0.00,VWS V14.01,2013-02-16 09:01:00,
2013-02-16 01:06:00,30.4,13.5,27.73,NE,39,0.0,0.0,49,0.00,,---,0.00,VWS V14.01,2013-02-16 09:06:00,
2013-02-16 01:11:00,30.0,12.7,27.73,NE,39,0.0,0.0,48,0.00,,---,0.00,VWS V14.01,2013-02-16 09:11:00,
2013-02-16 01:16:00,30.0,13.2,27.73,NE,39,0.0,0.0,49,0.00,,---,0.00,VWS V14.01,2013-02-16 09:16:00,
2013-02-16 01:21:00,30.0,13.2,27.73,NE,39,0.0,0.0,49,0.00,,---,0.00,VWS V14.01,2013-02-16 09:21:00,
2013-02-16 01:26:00,29.8,12.6,27.73,NE,39,0.0,0.0,48,0.00,,---,0.00,VWS V14.01,2013-02-16 09:26:00,
2013-02-16 01:31:00,29.3,11.1,27.73,NE,39,0.0,0.0,46,0.00,,---,0.00,VWS V14.01,2013-02-16 09:31:00,
2013-02-16 01:36:00,28.9,11.2,27.73,NE,39,0.0,0.0,47,0.00,,---,0.00,VWS V14.01,2013-02-16 09:36:00,
2013-02-16 01:41:00,28.8,11.6,27.73,NE,39,0.0,0.0,48,0.00,,---,0.00,VWS V14.01,2013-02-16 09:41:00,
2013-02-16 01:46:00,29.1,12.8,27.73,NE,39,0.0,0.0,50,0.00,,---,0.00,VWS V14.01,2013-02-16 09:46:00,
2013-02-16 01:51:00,29.1,12.8,27.70,NE,39,0.0,0.0,50,0.00,,---,0.00,VWS V14.01,2013-02-16 09:51:00,
2013-02-16 01:56:00,28.9,12.6,27.70,NE,38,0.0,0.0,50,0.00,,---,0.00,VWS V14.01,2013-02-16 09:56:00,
2013-02-16 02:01:00,28.8,12.0,27.70,NE,39,0.0,0.0,49,0.00,,---,0.00,VWS V14.01,2013-02-16 10:01:00,
2013-02-16 02:06:00,28.6,11.9,27.70,NE,39,0.0,0.0,49,0.00,,---,0.00,VWS V14.01,2013-02-16 10:06:00,
2013-02-16 02:11:00,28.4,11.7,27.70,NE,39,0.0,0.0,49,0.00,,---,0.00,VWS V14.01,2013-02-16 10:11:00,
2013-02-16 02:16:00,28.2,12.0,27.70,NE,39,0.0,0.0,50,0.00,,---,0.00,VWS V14.01,2013-02-16 10:16:00,
2013-02-16 02:21:00,28.2,12.0,27.70,NE,39,0.0,0.0,50,0.00,,---,0.00,VWS V14.01,2013-02-16 10:21:00,
2013-02-16 02:26:00,28.0,11.4,27.70,NE,39,0.0,0.0,49,0.00,,---,0.00,VWS V14.01,2013-02-16 10:26:00,
2013-02-16 02:31:00,28.0,11.8,27.70,NE,39,0.0,0.0,50,0.00,,---,0.00,VWS V14.01,2013-02-16 10:31:00,
2013-02-16 02:36:00,27.9,11.2,27.70,NE,39,0.0,0.0,49,0.00,,---,0.00,VWS V14.01,2013-02-16 10:36:00,
2013-02-16 02:41:00,27.9,11.6,27.70,NE,39,0.0,0.0,50,0.00,,---,0.00,VWS V14.01,2013-02-16 10:41:00,
2013-02-16 02:46:00,27.9,11.6,27.70,NE,39,0.0,0.0,50,0.00,,---,0.00,VWS V14.01,2013-02-16 10:46:00,
2013-02-16 02:51:00,27.7,11.5,27.67,NE,39,0.0,0.0,50,0.00,,---,0.00,VWS V14.01,2013-02-16 10:51:00,
2013-02-16 02:56:00,27.5,11.3,27.67,NE,39,0.0,0.0,50,0.00,,---,0.00,VWS V14.01,2013-02-16 10:56:00,
2013-02-16 03:01:00,27.5,11.8,27.67,NE,39,0.0,0.0,51,0.00,,---,0.00,VWS V14.01,2013-02-16 11:01:00,
2013-02-16 03:06:00,27.3,11.6,27.67,NE,39,0.0,0.0,51,0.00,,---,0.00,VWS V14.01,2013-02-16 11:06:00,
2013-02-16 03:11:00,27.3,11.6,27.67,NE,39,0.0,0.0,51,0.00,,---,0.00,VWS V14.01,2013-02-16 11:11:00,
2013-02-16 03:16:00,27.3,11.6,27.67,NE,39,0.0,0.0,51,0.00,,---,0.00,VWS V14.01,2013-02-16 11:16:00,
2013-02-16 03:21:00,27.0,11.7,27.67,NNE,33,0.0,0.0,52,0.00,,---,0.00,VWS V14.01,2013-02-16 11:21:00,
2013-02-16 03:26:00,27.0,11.7,27.67,NE,35,0.0,0.0,52,0.00,,---,0.00,VWS V14.01,2013-02-16 11:26:00,
2013-02-16 03:31:00,27.0,11.7,27.67,NE,34,0.0,0.0,52,0.00,,---,0.00,VWS V14.01,2013-02-16 11:31:00,
2013-02-16 03:36:00,27.1,11.9,27.67,NE,35,0.0,0.0,52,0.00,,---,0.00,VWS V14.01,2013-02-16 11:36:00,
2013-02-16 03:41:00,27.1,11.9,27.67,NE,35,0.0,0.0,52,0.00,,---,0.00,VWS V14.01,2013-02-16 11:41:00,
2013-02-16 03:46:00,27.1,12.3,27.67,NE,35,0.0,0.0,53,0.00,,---,0.00,VWS V14.01,2013-02-16 11:46:00,
2013-02-16 03:51:00,27.1,12.3,27.67,NE,35,0.0,0.0,53,0.00,,---,0.00,VWS V14.01,2013-02-16 11:51:00,
2013-02-16 03:56:00,27.0,12.1,27.67,NE,35,0.0,0.0,53,0.00,,---,0.00,VWS V14.01,2013-02-16 11:56:00,
2013-02-16 04:01:00,27.1,12.3,27.67,NE,35,0.0,0.0,53,0.00,,---,0.00,VWS V14.01,2013-02-16 12:01:00,
2013-02-16 04:06:00,27.5,13.1,27.67,NE,35,0.0,0.0,54,0.00,,---,0.00,VWS V14.01,2013-02-16 12:06:00,
2013-02-16 04:11:00,27.7,13.2,27.67,NE,35,0.0,0.0,54,0.00,,---,0.00,VWS V14.01,2013-02-16 12:11:00,
2013-02-16 04:16:00,27.5,12.6,27.67,NE,35,0.0,0.0,53,0.00,,---,0.00,VWS V14.01,2013-02-16 12:16:00,
2013-02-16 04:21:00,27.3,12.5,27.64,NE,34,0.0,0.0,53,0.00,,---,0.00,VWS V14.01,2013-02-16 12:21:00,
2013-02-16 04:26:00,27.1,12.7,27.64,NE,35,0.0,0.0,54,0.00,,---,0.00,VWS V14.01,2013-02-16 12:26:00,
2013-02-16 04:31:00,27.0,12.1,27.64,NE,35,0.0,0.0,53,0.00,,---,0.00,VWS V14.01,2013-02-16 12:31:00,
2013-02-16 04:36:00,27.0,12.1,27.64,NNE,32,0.0,0.0,53,0.00,,---,0.00,VWS V14.01,2013-02-16 12:36:00,
2013-02-16 04:41:00,26.4,11.6,27.64,NNE,32,0.0,0.0,53,0.00,,---,0.00,VWS V14.01,2013-02-16 12:41:00,
2013-02-16 04:46:00,26.2,11.4,27.64,NNE,32,0.0,0.0,53,0.00,,---,0.00,VWS V14.01,2013-02-16 12:46:00,
2013-02-16 04:51:00,26.4,12.0,27.64,NNE,32,0.0,0.0,54,0.00,,---,0.00,VWS V14.01,2013-02-16 12:51:00,
2013-02-16 04:56:00,26.4,12.0,27.64,NNE,32,0.0,0.0,54,0.00,,---,0.00,VWS V14.01,2013-02-16 12:56:00,
2013-02-16 05:01:00,26.6,12.2,27.64,NNE,32,0.0,0.0,54,0.00,,---,0.00,VWS V14.01,2013-02-16 13:01:00,
2013-02-16 05:06:00,26.6,12.6,27.64,NNE,33,0.0,0.0,55,0.00,,---,0.00,VWS V14.01,2013-02-16 13:06:00,
2013-02-16 05:11:00,26.6,12.6,27.64,NNE,32,0.0,0.0,55,0.00,,---,0.00,VWS V14.01,2013-02-16 13:11:00,
2013-02-16 05:16:00,26.6,12.6,27.64,NNE,32,0.0,0.0,55,0.00,,---,0.00,VWS V14.01,2013-02-16 13:16:00,
2013-02-16 05:21:00,26.4,12.5,27.64,NNE,32,0.0,0.0,55,0.00,,---,0.00,VWS V14.01,2013-02-16 13:21:00,
2013-02-16 05:26:00,26.4,12.5,27.64,NNE,32,0.0,0.0,55,0.00,,---,0.00,VWS V14.01,2013-02-16 13:26:00,
2013-02-16 05:31:00,26.6,12.6,27.64,NNE,33,0.0,0.0,55,0.00,,---,0.00,VWS V14.01,2013-02-16 13:31:00,
2013-02-16 05:36:00,26.8,12.8,27.64,NNE,33,0.0,0.0,55,0.00,,---,0.00,VWS V14.01,2013-02-16 13:36:00,
2013-02-16 05:41:00,26.6,12.6,27.64,NNE,33,0.0,0.0,55,0.00,,---,0.00,VWS V14.01,2013-02-16 13:41:00,
2013-02-16 05:46:00,26.4,12.5,27.64,NNE,21,0.0,0.0,55,0.00,,---,0.00,VWS V14.01,2013-02-16 13:46:00,
2013-02-16 05:51:00,26.2,12.3,27.64,NNE,21,0.0,0.0,55,0.00,,---,0.00,VWS V14.01,2013-02-16 13:51:00,
2013-02-16 05:56:00,26.4,12.5,27.64,NNE,21,0.0,0.0,55,0.00,,---,0.00,VWS V14.01,2013-02-16 13:56:00,
2013-02-16 06:01:00,26.8,13.2,27.64,NNE,21,0.0,0.0,56,0.00,,---,0.00,VWS V14.01,2013-02-16 14:01:00,
2013-02-16 06:06:00,26.8,12.8,27.64,NNE,21,0.0,0.0,55,0.00,,---,0.00,VWS V14.01,2013-02-16 14:06:00,
2013-02-16 06:11:00,26.8,12.8,27.64,NNE,21,0.0,0.0,55,0.00,,---,0.00,VWS V14.01,2013-02-16 14:11:00,
2013-02-16 06:16:00,26.6,12.6,27.64,NNE,21,0.0,0.0,55,0.00,,---,0.00,VWS V14.01,2013-02-16 14:16:00,
2013-02-16 06:21:00,26.6,12.6,27.64,NNE,21,0.0,0.0,55,0.00,,---,0.00,VWS V14.01,2013-02-16 14:21:00,
2013-02-16 06:26:00,26.8,12.8,27.64,NNE,21,0.0,0.0,55,0.00,,---,0.00,VWS V14.01,2013-02-16 14:26:00,
2013-02-16 06:31:00,26.4,12.5,27.64,NNE,21,0.0,0.0,55,0.00,,---,0.00,VWS V14.01,2013-02-16 14:31:00,
2013-02-16 06:36:00,26.2,12.3,27.61,NNE,21,0.0,0.0,55,0.00,,---,0.00,VWS V14.01,2013-02-16 14:36:00,
2013-02-16 06:41:00,26.2,12.3,27.61,NNE,21,0.0,0.0,55,0.00,,---,0.00,VWS V14.01,2013-02-16 14:41:00,
2013-02-16 06:46:00,26.2,12.3,27.61,NNE,21,0.0,0.0,55,0.00,,---,0.00,VWS V14.01,2013-02-16 14:46:00,
2013-02-16 06:51:00,26.2,12.3,27.61,NNE,21,0.0,0.0,55,0.00,,---,0.00,VWS V14.01,2013-02-16 14:51:00,
2013-02-16 06:56:00,26.4,12.9,27.61,NNE,21,0.0,0.0,56,0.00,,---,0.00,VWS V14.01,2013-02-16 14:56:00,
2013-02-16 07:01:00,26.4,12.9,27.61,NNE,21,0.0,0.0,56,0.00,,---,0.00,VWS V14.01,2013-02-16 15:01:00,
2013-02-16 07:06:00,26.6,13.0,27.61,NNE,20,0.0,0.0,56,0.00,,---,0.00,VWS V14.01,2013-02-16 15:06:00,
2013-02-16 07:11:00,26.6,13.0,27.61,NNE,20,0.0,0.0,56,0.00,,---,0.00,VWS V14.01,2013-02-16 15:11:00,
2013-02-16 07:16:00,26.8,13.2,27.61,NNE,12,0.0,0.0,56,0.00,,---,0.00,VWS V14.01,2013-02-16 15:16:00,
2013-02-16 07:21:00,26.2,12.7,27.61,NNE,12,0.0,0.0,56,0.00,,---,0.00,VWS V14.01,2013-02-16 15:21:00,
2013-02-16 07:26:00,26.6,13.0,27.61,NNE,12,0.0,0.0,56,0.00,,---,0.00,VWS V14.01,2013-02-16 15:26:00,
2013-02-16 07:31:00,27.7,14.9,27.61,NNE,12,0.0,0.0,58,0.00,,---,0.00,VWS V14.01,2013-02-16 15:31:00,
2013-02-16 07:36:00,29.1,16.6,27.61,NNE,12,0.0,0.0,59,0.00,,---,0.00,VWS V14.01,2013-02-16 15:36:00,
2013-02-16 07:41:00,30.2,18.0,27.61,ENE,58,0.0,0.0,60,0.00,,---,0.00,VWS V14.01,2013-02-16 15:41:00,
2013-02-16 07:46:00,31.3,19.0,27.61,SSE,164,0.0,0.0,60,0.00,,---,0.00,VWS V14.01,2013-02-16 15:46:00,
2013-02-16 07:51:00,32.5,20.2,27.61,SE,144,0.0,0.0,60,0.00,,---,0.00,VWS V14.01,2013-02-16 15:51:00,
2013-02-16 07:56:00,33.3,18.4,27.61,SSE,167,0.0,0.0,54,0.00,,---,0.00,VWS V14.01,2013-02-16 15:56:00,
2013-02-16 08:01:00,34.3,13.6,27.61,South,183,0.0,0.0,42,0.00,,---,0.00,VWS V14.01,2013-02-16 16:01:00,
2013-02-16 08:06:00,34.7,12.9,27.61,SSW,192,0.0,0.0,40,0.00,,---,0.00,VWS V14.01,2013-02-16 16:06:00,
2013-02-16 08:11:00,34.3,12.5,27.61,SSW,195,0.0,0.0,40,0.00,,---,0.00,VWS V14.01,2013-02-16 16:11:00,
2013-02-16 08:16:00,34.2,12.4,27.61,South,190,0.0,0.0,40,0.00,,---,0.00,VWS V14.01,2013-02-16 16:16:00,
2013-02-16 08:21:00,35.2,13.4,27.61,South,184,0.0,0.0,40,0.00,,---,0.00,VWS V14.01,2013-02-16 16:21:00,
2013-02-16 08:26:00,36.1,10.5,27.61,SSE,151,0.0,0.0,34,0.00,,---,0.00,VWS V14.01,2013-02-16 16:26:00,
2013-02-16 08:31:00,36.0,10.3,27.61,SE,135,0.0,2.2,34,0.00,,---,0.00,VWS V14.01,2013-02-16 16:31:00,
2013-02-16 08:36:00,35.8,10.8,27.61,SSW,202,0.0,0.0,35,0.00,,---,0.00,VWS V14.01,2013-02-16 16:36:00,
2013-02-16 08:41:00,36.0,11.0,27.61,South,190,0.0,0.0,35,0.00,,---,0.00,VWS V14.01,2013-02-16 16:41:00,
2013-02-16 08:46:00,36.1,11.8,27.61,SSW,205,0.0,0.0,36,0.00,,---,0.00,VWS V14.01,2013-02-16 16:46:00,
2013-02-16 08:51:00,36.1,11.8,27.61,South,183,0.0,0.0,36,0.00,,---,0.00,VWS V14.01,2013-02-16 16:51:00,
2013-02-16 08:56:00,36.7,12.3,27.61,South,176,2.2,3.1,36,0.00,,---,0.00,VWS V14.01,2013-02-16 16:56:00,
2013-02-16 09:01:00,37.4,12.9,27.61,SSW,196,0.0,2.7,36,0.00,,---,0.00,VWS V14.01,2013-02-16 17:01:00,
2013-02-16 09:06:00,38.7,12.1,27.61,South,187,0.0,0.0,33,0.00,,---,0.00,VWS V14.01,2013-02-16 17:06:00,
2013-02-16 09:11:00,39.7,11.6,27.61,SSW,203,0.0,0.0,31,0.00,,---,0.00,VWS V14.01,2013-02-16 17:11:00,
2013-02-16 09:15:00,40.6,11.6,27.61,East,90,0.0,0.0,30,0.00,,---,0.00,VWS V14.01,2013-02-16 17:15:00,
2013-02-16 09:20:00,41.0,11.2,27.61,ESE,122,0.0,0.0,29,0.00,,---,0.00,VWS V14.01,2013-02-16 17:20:00,
2013-02-16 09:25:00,41.0,11.2,27.61,ESE,114,0.0,0.0,29,0.00,,---,0.00,VWS V14.01,2013-02-16 17:25:00,
2013-02-16 09:30:00,41.2,11.4,27.61,East,89,0.0,0.0,29,0.00,,---,0.00,VWS V14.01,2013-02-16 17:30:00,
2013-02-16 09:35:00,42.4,12.4,27.61,SSE,159,3.1,3.1,29,0.00,,---,0.00,VWS V14.01,2013-02-16 17:35:00,
2013-02-16 09:40:00,42.8,12.0,27.61,SSW,194,3.1,3.1,28,0.00,,---,0.00,VWS V14.01,2013-02-16 17:40:00,
2013-02-16 09:45:00,43.5,12.6,27.61,South,183,2.7,3.6,28,0.00,,---,0.00,VWS V14.01,2013-02-16 17:45:00,
2013-02-16 09:50:00,43.5,12.6,27.58,South,178,5.4,8.1,28,0.00,,---,0.00,VWS V14.01,2013-02-16 17:50:00,
2013-02-16 09:55:00,43.5,12.6,27.58,South,191,4.9,5.8,28,0.00,,---,0.00,VWS V14.01,2013-02-16 17:55:00,
2013-02-16 10:00:00,45.5,14.3,27.58,SW,217,8.3,8.3,28,0.00,,---,0.00,VWS V14.01,2013-02-16 18:00:00,
2013-02-16 10:05:00,45.7,13.6,27.58,SSW,198,7.6,8.1,27,0.00,,---,0.00,VWS V14.01,2013-02-16 18:05:00,
2013-02-16 10:10:00,45.9,13.8,27.58,SSW,194,3.6,3.6,27,0.00,,---,0.00,VWS V14.01,2013-02-16 18:10:00,
2013-02-16 10:15:00,46.0,13.9,27.58,SW,215,4.0,8.7,27,0.00,,---,0.00,VWS V14.01,2013-02-16 18:15:00,
2013-02-16 10:20:00,46.6,14.4,27.58,SSW,197,5.4,5.4,27,0.00,,---,0.00,VWS V14.01,2013-02-16 18:20:00,
2013-02-16 10:25:00,47.5,15.2,27.58,SSW,211,5.8,7.6,27,0.00,,---,0.00,VWS V14.01,2013-02-16 18:25:00,
2013-02-16 10:30:00,47.5,15.2,27.58,SSW,207,5.4,6.3,27,0.00,,---,0.00,VWS V14.01,2013-02-16 18:30:00,
2013-02-16 10:35:00,47.3,15.0,27.58,SW,227,7.6,7.6,27,0.00,,---,0.00,VWS V14.01,2013-02-16 18:35:00,
2013-02-16 10:40:00,46.8,14.6,27.58,SW,230,9.6,9.6,27,0.00,,---,0.00,VWS V14.01,2013-02-16 18:40:00,
2013-02-16 10:45:00,46.8,14.6,27.58,SW,223,10.1,10.1,27,0.00,,---,0.00,VWS V14.01,2013-02-16 18:45:00,
2013-02-16 10:50:00,46.4,14.2,27.58,SSW,212,6.3,6.3,27,0.00,,---,0.00,VWS V14.01,2013-02-16 18:50:00,
2013-02-16 10:55:00,46.0,13.9,27.58,SW,224,8.3,10.5,27,0.00,,---,0.00,VWS V14.01,2013-02-16 18:55:00,
2013-02-16 11:00:00,45.9,13.8,27.58,WSW,240,8.7,8.7,27,0.00,,---,0.00,VWS V14.01,2013-02-16 19:00:00,
2013-02-16 11:05:00,45.9,14.6,27.58,SW,230,5.8,5.8,28,0.00,,---,0.00,VWS V14.01,2013-02-16 19:05:00,
2013-02-16 11:10:00,46.2,14.1,27.58,SW,235,10.1,13.2,27,0.00,,---,0.00,VWS V14.01,2013-02-16 19:10:00,
2013-02-16 11:15:00,46.4,14.2,27.58,SW,216,9.2,12.8,27,0.00,,---,0.00,VWS V14.01,2013-02-16 19:15:00,
2013-02-16 11:20:00,46.8,14.6,27.55,WSW,237,10.1,10.1,27,0.00,,---,0.00,VWS V14.01,2013-02-16 19:20:00,
2013-02-16 11:25:00,46.6,14.4,27.55,SW,223,8.7,10.5,27,0.00,,---,0.00,VWS V14.01,2013-02-16 19:25:00,
2013-02-16 11:30:00,46.2,14.1,27.55,WSW,249,6.3,6.3,27,0.00,,---,0.00,VWS V14.01,2013-02-16 19:30:00,
2013-02-16 11:35:00,46.4,14.2,27.55,SW,236,8.7,10.5,27,0.00,,---,0.00,VWS V14.01,2013-02-16 19:35:00,
2013-02-16 11:40:00,46.2,14.1,27.55,SW,233,8.3,10.1,27,0.00,,---,0.00,VWS V14.01,2013-02-16 19:40:00,
2013-02-16 11:45:00,46.2,14.9,27.55,WSW,246,8.1,10.5,28,0.00,,---,0.00,VWS V14.01,2013-02-16 19:45:00,
2013-02-16 11:50:00,46.0,14.8,27.55,South,181,4.9,5.8,28,0.00,,---,0.00,VWS V14.01,2013-02-16 19:50:00,
2013-02-16 11:55:00,45.7,14.5,27.55,SW,231,11.0,11.0,28,0.00,,---,0.00,VWS V14.01,2013-02-16 19:55:00,
2013-02-16 12:00:00,45.5,14.3,27.55,SW,226,8.7,8.7,28,0.00,,---,0.00,VWS V14.01,2013-02-16 20:00:00,
2013-02-16 12:05:00,45.5,14.3,27.55,WSW,239,5.8,8.7,28,0.00,,---,0.00,VWS V14.01,2013-02-16 20:05:00,
2013-02-16 12:10:00,45.3,14.1,27.55,WSW,243,7.2,7.2,28,0.00,,---,0.00,VWS V14.01,2013-02-16 20:10:00,
2013-02-16 12:15:00,44.8,13.7,27.55,WSW,245,6.3,6.3,28,0.00,,---,0.00,VWS V14.01,2013-02-16 20:15:00,
2013-02-16 12:20:00,44.4,13.4,27.52,WSW,245,4.5,6.3,28,0.00,,---,0.00,VWS V14.01,2013-02-16 20:20:00,
2013-02-16 12:25:00,44.2,14.0,27.52,SSW,204,5.4,5.4,29,0.00,,---,0.00,VWS V14.01,2013-02-16 20:25:00,
2013-02-16 12:30:00,44.1,13.9,27.52,SW,227,8.7,8.7,29,0.00,,---,0.00,VWS V14.01,2013-02-16 20:30:00,
2013-02-16 12:35:00,43.9,14.5,27.52,SSW,207,5.8,5.8,30,0.00,,---,0.00,VWS V14.01,2013-02-16 20:35:00,
2013-02-16 12:40:00,43.7,14.3,27.52,SSW,203,5.4,8.1,30,0.00,,---,0.00,VWS V14.01,2013-02-16 20:40:00,
2013-02-16 12:45:00,43.7,14.3,27.52,WSW,239,5.8,5.8,30,0.00,,---,0.00,VWS V14.01,2013-02-16 20:45:00,
2013-02-16 12:50:00,43.7,14.3,27.52,WSW,242,6.3,6.3,30,0.00,,---,0.00,VWS V14.01,2013-02-16 20:50:00,
2013-02-16 12:55:00,43.7,14.3,27.52,SW,227,5.8,5.8,30,0.00,,---,0.00,VWS V14.01,2013-02-16 20:55:00,
2013-02-16 13:00:00,44.1,14.6,27.52,SW,230,2.7,4.0,30,0.00,,---,0.00,VWS V14.01,2013-02-16 21:00:00,
2013-02-16 13:05:00,44.2,14.0,27.52,WSW,246,4.9,5.8,29,0.00,,---,0.00,VWS V14.01,2013-02-16 21:05:00,
2013-02-16 13:10:00,44.1,13.9,27.52,SSW,211,4.9,4.9,29,0.00,,---,0.00,VWS V14.01,2013-02-16 21:10:00,
2013-02-16 13:15:00,43.7,14.3,27.52,WSW,257,4.0,4.0,30,0.00,,---,0.00,VWS V14.01,2013-02-16 21:15:00,
2013-02-16 13:20:00,43.3,15.5,27.49,SW,235,8.7,8.7,32,0.00,,---,0.00,VWS V14.01,2013-02-16 21:20:00,
2013-02-16 13:25:00,43.0,15.2,27.49,SW,217,5.8,6.7,32,0.00,,---,0.00,VWS V14.01,2013-02-16 21:25:00,
2013-02-16 13:30:00,43.0,15.9,27.49,SSW,195,8.3,8.3,33,0.00,,---,0.00,VWS V14.01,2013-02-16 21:30:00,
2013-02-16 13:35:00,42.6,18.2,27.49,SSW,205,8.3,8.7,37,0.00,,---,0.00,VWS V14.01,2013-02-16 21:35:00,
2013-02-16 13:40:00,42.4,18.0,27.49,SW,218,7.6,8.3,37,0.00,,---,0.00,VWS V14.01,2013-02-16 21:40:00,
2013-02-16 13:45:00,42.6,18.8,27.49,SW,221,7.6,8.7,38,0.00,,---,0.00,VWS V14.01,2013-02-16 21:45:00,
2013-02-16 13:50:00,42.4,17.4,27.49,WSW,238,10.1,12.8,36,0.00,,---,0.00,VWS V14.01,2013-02-16 21:50:00,
2013-02-16 13:55:00,42.4,17.4,27.49,SW,225,8.1,8.3,36,0.00,,---,0.00,VWS V14.01,2013-02-16 21:55:00,
2013-02-16 14:00:00,42.3,18.5,27.49,SW,220,8.3,8.3,38,0.00,,---,0.00,VWS V14.01,2013-02-16 22:00:00,
2013-02-16 14:05:00,41.9,18.8,27.49,South,187,8.1,10.5,39,0.00,,---,0.00,VWS V14.01,2013-02-16 22:05:00,
2013-02-16 14:10:00,41.5,19.0,27.49,SSW,195,7.6,10.1,40,0.00,,---,0.00,VWS V14.01,2013-02-16 22:10:00,
2013-02-16 14:15:00,41.7,19.2,27.49,WSW,251,10.1,10.1,40,0.00,,---,0.00,VWS V14.01,2013-02-16 22:15:00,
2013-02-16 14:20:00,41.9,18.8,27.46,WSW,240,8.7,8.7,39,0.00,,---,0.00,VWS V14.01,2013-02-16 22:20:00,
2013-02-16 14:25:00,42.1,18.9,27.46,West,281,6.3,6.3,39,0.00,,---,0.00,VWS V14.01,2013-02-16 22:25:00,
2013-02-16 14:30:00,42.3,19.7,27.46,WSW,250,8.1,8.1,40,0.00,,---,0.00,VWS V14.01,2013-02-16 22:30:00,
2013-02-16 14:35:00,42.1,18.9,27.49,WNW,298,5.8,7.6,39,0.00,,---,0.00,VWS V14.01,2013-02-16 22:35:00,
2013-02-16 14:40:00,42.1,18.9,27.49,WSW,239,6.3,10.5,39,0.00,,---,0.00,VWS V14.01,2013-02-16 22:40:00,
2013-02-16 14:45:00,42.4,19.2,27.49,SW,234,8.7,11.0,39,0.00,,---,0.00,VWS V14.01,2013-02-16 22:45:00,
2013-02-16 14:50:00,42.4,19.2,27.46,WSW,240,8.1,8.1,39,0.00,,---,0.00,VWS V14.01,2013-02-16 22:50:00,
2013-02-16 14:55:00,42.6,19.4,27.46,SSW,213,5.8,5.8,39,0.00,,---,0.00,VWS V14.01,2013-02-16 22:55:00,
2013-02-16 15:00:00,42.6,19.4,27.46,SW,227,10.5,10.5,39,0.00,,---,0.00,VWS V14.01,2013-02-16 23:00:00,
2013-02-16 15:05:00,42.6,19.4,27.49,West,260,5.4,5.8,39,0.00,,---,0.00,VWS V14.01,2013-02-16 23:05:00,
2013-02-16 15:10:00,42.4,18.6,27.49,West,261,8.3,10.1,38,0.00,,---,0.00,VWS V14.01,2013-02-16 23:10:00,
2013-02-16 15:15:00,42.3,18.5,27.49,SW,227,3.1,4.9,38,0.00,,---,0.00,VWS V14.01,2013-02-16 23:15:00,
2013-02-16 15:20:00,42.3,19.1,27.49,WSW,249,5.8,5.8,39,0.00,,---,0.00,VWS V14.01,2013-02-16 23:20:00,
2013-02-16 15:25:00,42.1,18.3,27.49,SSW,197,5.4,8.3,38,0.00,,---,0.00,VWS V14.01,2013-02-16 23:25:00,
2013-02-16 15:30:00,42.1,18.3,27.49,SW,226,8.1,8.3,38,0.00,,---,0.00,VWS V14.01,2013-02-16 23:30:00,
2013-02-16 15:35:00,42.1,18.3,27.46,SW,220,6.3,8.3,38,0.00,,---,0.00,VWS V14.01,2013-02-16 23:35:00,
2013-02-16 15:40:00,42.3,18.5,27.46,WNW,290,6.3,11.0,38,0.00,,---,0.00,VWS V14.01,2013-02-16 23:40:00,
2013-02-16 15:45:00,42.3,18.5,27.46,SW,222,5.8,6.3,38,0.00,,---,0.00,VWS V14.01,2013-02-16 23:45:00,
2013-02-16 15:50:00,42.1,17.1,27.46,SW,234,10.5,10.5,36,0.00,,---,0.00,VWS V14.01,2013-02-16 23:50:00,
2013-02-16 15:55:00,42.1,17.7,27.46,SW,228,7.6,8.3,37,0.00,,---,0.00,VWS V14.01,2013-02-16 23:55:00,
2013-02-16 16:00:00,42.1,17.7,27.46,SW,228,5.4,8.3,37,0.00,,---,0.00,VWS V14.01,2013-02-17 00:00:00,
2013-02-16 16:05:00,42.3,18.5,27.46,SW,235,8.1,8.3,38,0.00,,---,0.00,VWS V14.01,2013-02-17 00:05:00,
2013-02-16 16:10:00,42.3,18.5,27.46,SW,236,7.6,8.7,38,0.00,,---,0.00,VWS V14.01,2013-02-17 00:10:00,
2013-02-16 16:15:00,42.3,17.9,27.46,WSW,243,6.3,7.6,37,0.00,,---,0.00,VWS V14.01,2013-02-17 00:15:00,
2013-02-16 16:20:00,42.4,18.6,27.46,SW,226,11.0,11.0,38,0.00,,---,0.00,VWS V14.01,2013-02-17 00:20:00,
2013-02-16 16:25:00,42.4,17.4,27.46,SW,231,9.6,12.3,36,0.00,,---,0.00,VWS V14.01,2013-02-17 00:25:00,
2013-02-16 16:30:00,42.4,17.4,27.46,SW,220,9.6,11.0,36,0.00,,---,0.00,VWS V14.01,2013-02-17 00:30:00,
2013-02-16 16:35:00,42.3,16.6,27.46,West,273,6.7,8.7,35,0.00,,---,0.00,VWS V14.01,2013-02-17 00:35:00,
2013-02-16 16:40:00,41.9,15.6,27.46,WSW,242,7.6,13.2,34,0.00,,---,0.00,VWS V14.01,2013-02-17 00:40:00,
2013-02-16 16:45:00,41.9,15.6,27.46,SW,226,10.5,11.0,34,0.00,,---,0.00,VWS V14.01,2013-02-17 00:45:00,
2013-02-16 16:50:00,41.9,15.6,27.46,WSW,257,7.6,8.3,34,0.00,,---,0.00,VWS V14.01,2013-02-17 00:50:00,
2013-02-16 16:55:00,41.7,15.4,27.46,SW,229,6.7,8.3,34,0.00,,---,0.00,VWS V14.01,2013-02-17 00:55:00,
2013-02-16 17:00:00,41.4,15.1,27.46,SW,229,5.8,8.1,34,0.00,,---,0.00,VWS V14.01,2013-02-17 01:00:00,
2013-02-16 17:05:00,41.0,14.8,27.46,WSW,254,5.8,8.3,34,0.00,,---,0.00,VWS V14.01,2013-02-17 01:05:00,
2013-02-16 17:10:00,40.8,14.6,27.46,SW,225,6.7,8.3,34,0.00,,---,0.00,VWS V14.01,2013-02-17 01:10:00,
2013-02-16 17:15:00,40.6,15.1,27.46,SW,227,5.8,6.3,35,0.00,,---,0.00,VWS V14.01,2013-02-17 01:15:00,
2013-02-16 17:20:00,40.3,14.8,27.46,SW,230,4.9,6.3,35,0.00,,---,0.00,VWS V14.01,2013-02-17 01:20:00,
2013-02-16 17:25:00,39.7,16.2,27.46,SSW,211,5.8,6.3,38,0.00,,---,0.00,VWS V14.01,2013-02-17 01:25:00,
2013-02-16 17:30:00,39.6,16.1,27.46,SW,224,5.4,6.3,38,0.00,,---,0.00,VWS V14.01,2013-02-17 01:30:00,
2013-02-16 17:35:00,39.4,16.5,27.46,SW,234,5.8,5.8,39,0.00,,---,0.00,VWS V14.01,2013-02-17 01:35:00,
2013-02-16 17:40:00,39.4,16.5,27.46,WSW,239,5.4,6.3,39,0.00,,---,0.00,VWS V14.01,2013-02-17 01:40:00,
2013-02-16 17:45:00,39.4,16.5,27.46,SW,228,6.3,6.3,39,0.00,,---,0.00,VWS V14.01,2013-02-17 01:45:00,
2013-02-16 17:50:00,39.4,16.5,27.46,SW,221,5.4,5.8,39,0.00,,---,0.00,VWS V14.01,2013-02-17 01:50:00,
2013-02-16 17:55:00,39.2,16.3,27.46,SW,222,6.3,8.3,39,0.00,,---,0.00,VWS V14.01,2013-02-17 01:55:00,
2013-02-16 18:00:00,39.0,16.8,27.46,SW,233,6.3,6.3,40,0.00,,---,0.00,VWS V14.01,2013-02-17 02:00:00,
2013-02-16 18:05:00,39.0,16.8,27.46,SSW,210,5.8,7.6,40,0.00,,---,0.00,VWS V14.01,2013-02-17 02:05:00,
2013-02-16 18:10:00,39.2,16.9,27.46,SW,226,5.4,5.8,40,0.00,,---,0.00,VWS V14.01,2013-02-17 02:10:00,
2013-02-16 18:15:00,39.2,16.9,27.46,SW,216,5.8,8.1,40,0.00,,---,0.00,VWS V14.01,2013-02-17 02:15:00,
2013-02-16 18:20:00,39.0,16.8,27.43,SW,215,5.8,6.3,40,0.00,,---,0.00,VWS V14.01,2013-02-17 02:20:00,
2013-02-16 18:25:00,39.0,17.3,27.43,SW,222,5.8,5.8,41,0.00,,---,0.00,VWS V14.01,2013-02-17 02:25:00,
2013-02-16 18:30:00,38.8,16.6,27.43,WSW,252,3.6,4.0,40,0.00,,---,0.00,VWS V14.01,2013-02-17 02:30:00,
2013-02-16 18:35:00,38.7,17.0,27.43,SW,224,2.7,4.9,41,0.00,,---,0.00,VWS V14.01,2013-02-17 02:35:00,
2013-02-16 18:40:00,38.5,16.3,27.43,SW,225,2.2,2.7,40,0.00,,---,0.00,VWS V14.01,2013-02-17 02:40:00,
2013-02-16 18:45:00,37.9,15.8,27.43,SW,215,0.0,2.7,40,0.00,,---,0.00,VWS V14.01,2013-02-17 02:45:00,
2013-02-16 18:50:00,37.4,15.9,27.43,SW,234,4.0,4.0,41,0.00,,---,0.00,VWS V14.01,2013-02-17 02:50:00,
2013-02-16 18:55:00,37.2,16.3,27.43,WSW,239,3.6,3.6,42,0.00,,---,0.00,VWS V14.01,2013-02-17 02:55:00,
2013-02-16 19:00:00,37.0,16.1,27.43,SW,232,3.6,4.0,42,0.00,,---,0.00,VWS V14.01,2013-02-17 03:00:00,
2013-02-16 19:05:00,37.0,17.7,27.43,SW,222,4.9,5.4,45,0.00,,---,0.00,VWS V14.01,2013-02-17 03:05:00,
2013-02-16 19:10:00,37.2,18.4,27.43,SW,231,5.4,6.3,46,0.00,,---,0.00,VWS V14.01,2013-02-17 03:10:00,
2013-02-16 19:15:00,37.0,17.2,27.43,SW,223,5.8,6.3,44,0.00,,---,0.00,VWS V14.01,2013-02-17 03:15:00,
2013-02-16 19:20:00,37.0,17.7,27.43,SW,236,4.0,5.4,45,0.00,,---,0.00,VWS V14.01,2013-02-17 03:20:00,
2013-02-16 19:25:00,36.9,18.0,27.43,WSW,239,4.5,6.3,46,0.00,,---,0.00,VWS V14.01,2013-02-17 03:25:00,
2013-02-16 19:30:00,36.9,18.0,27.43,SW,232,4.0,5.8,46,0.00,,---,0.00,VWS V14.01,2013-02-17 03:30:00,
2013-02-16 19:35:00,36.9,17.5,27.43,WSW,247,3.1,5.4,45,0.00,,---,0.00,VWS V14.01,2013-02-17 03:35:00,
2013-02-16 19:40:00,36.7,17.4,27.43,WSW,258,4.0,4.0,45,0.00,,---,0.00,VWS V14.01,2013-02-17 03:40:00,
2013-02-16 19:45:00,36.5,16.7,27.43,SW,221,3.6,4.0,44,0.00,,---,0.00,VWS V14.01,2013-02-17 03:45:00,
2013-02-16 19:50:00,36.3,16.5,27.43,SW,222,6.3,6.3,44,0.00,,---,0.00,VWS V14.01,2013-02-17 03:50:00,
2013-02-16 19:55:00,36.0,16.2,27.43,SW,214,5.4,5.4,44,0.00,,---,0.00,VWS V14.01,2013-02-17 03:55:00,
2013-02-16 20:00:00,35.8,16.5,27.43,SW,214,3.6,4.0,45,0.00,,---,0.00,VWS V14.01,2013-02-17 04:00:00,
2013-02-16 20:05:00,35.8,16.0,27.43,WSW,239,4.0,5.4,44,0.00,,---,0.00,VWS V14.01,2013-02-17 04:05:00,
2013-02-16 20:10:00,35.4,15.2,27.43,SW,224,6.3,6.3,43,0.00,,---,0.00,VWS V14.01,2013-02-17 04:10:00,
2013-02-16 20:15:00,35.6,13.7,27.43,WSW,250,5.4,6.3,40,0.00,,---,0.00,VWS V14.01,2013-02-17 04:15:00,
2013-02-16 20:20:00,35.8,13.8,27.43,SW,221,6.3,8.3,40,0.00,,---,0.00,VWS V14.01,2013-02-17 04:20:00,
2013-02-16 20:25:00,36.0,12.8,27.43,WSW,252,5.4,6.3,38,0.00,,---,0.00,VWS V14.01,2013-02-17 04:25:00,
2013-02-16 20:30:00,36.1,12.4,27.43,WSW,249,5.8,5.8,37,0.00,,---,0.00,VWS V14.01,2013-02-17 04:30:00,
2013-02-16 20:35:00,36.1,12.4,27.43,WSW,254,7.6,7.6,37,0.00,,---,0.00,VWS V14.01,2013-02-17 04:35:00,
2013-02-16 20:40:00,36.1,12.4,27.43,SW,222,6.3,7.6,37,0.00,,---,0.00,VWS V14.01,2013-02-17 04:40:00,
2013-02-16 20:45:00,36.1,13.0,27.43,WSW,247,8.1,8.7,38,0.00,,---,0.00,VWS V14.01,2013-02-17 04:45:00,
2013-02-16 20:50:00,36.1,12.4,27.43,WSW,240,5.4,6.3,37,0.00,,---,0.00,VWS V14.01,2013-02-17 04:50:00,
2013-02-16 20:55:00,35.8,12.1,27.43,WSW,238,7.6,8.1,37,0.00,,---,0.00,VWS V14.01,2013-02-17 04:55:00,
2013-02-16 21:02:00,35.8,10.8,27.43,SW,221,8.1,8.1,35,0.00,,---,0.00,VWS V14.01,2013-02-17 05:02:00,
2013-02-16 21:07:00,35.8,10.2,27.43,WSW,246,4.0,5.4,34,0.00,,---,0.00,VWS V14.01,2013-02-17 05:07:00,
2013-02-16 21:12:00,35.6,10.0,27.43,SW,223,4.0,4.0,34,0.00,,---,0.00,VWS V14.01,2013-02-17 05:12:00,
2013-02-16 21:17:00,35.4,10.5,27.43,WSW,246,5.4,5.4,35,0.00,,---,0.00,VWS V14.01,2013-02-17 05:17:00,
2013-02-16 21:22:00,35.2,9.7,27.43,WNW,287,3.6,3.6,34,0.00,,---,0.00,VWS V14.01,2013-02-17 05:22:00,
2013-02-16 21:27:00,35.1,9.5,27.43,SW,230,2.7,2.7,34,0.00,,---,0.00,VWS V14.01,2013-02-17 05:27:00,
2013-02-16 21:32:00,35.1,9.5,27.43,WSW,254,0.0,0.0,34,0.00,,---,0.00,VWS V14.01,2013-02-17 05:32:00,
2013-02-16 21:37:00,34.9,9.4,27.43,SSW,211,3.6,3.6,34,0.00,,---,0.00,VWS V14.01,2013-02-17 05:37:00,
2013-02-16 21:42:00,34.7,9.2,27.43,WSW,242,3.6,3.6,34,0.00,,---,0.00,VWS V14.01,2013-02-17 05:42:00,
2013-02-16 21:47:00,34.5,9.1,27.43,WSW,241,5.4,5.4,34,0.00,,---,0.00,VWS V14.01,2013-02-17 05:47:00,
2013-02-16 21:52:00,34.5,9.1,27.43,WSW,244,5.4,5.4,34,0.00,,---,0.00,VWS V14.01,2013-02-17 05:52:00,
2013-02-16 21:57:00,34.7,9.2,27.43,SW,226,8.3,8.3,34,0.00,,---,0.00,VWS V14.01,2013-02-17 05:57:00,
2013-02-16 22:02:00,34.7,8.6,27.46,SW,231,6.3,6.3,33,0.00,,---,0.00,VWS V14.01,2013-02-17 06:02:00,
2013-02-16 22:07:00,34.9,8.7,27.46,SW,227,7.6,7.6,33,0.00,,---,0.00,VWS V14.01,2013-02-17 06:07:00,
2013-02-16 22:12:00,34.9,8.7,27.46,WSW,253,7.6,7.6,33,0.00,,---,0.00,VWS V14.01,2013-02-17 06:12:00,
2013-02-16 22:17:00,34.9,8.7,27.46,WSW,252,5.8,8.7,33,0.00,,---,0.00,VWS V14.01,2013-02-17 06:17:00,
2013-02-16 22:22:00,34.9,8.7,27.46,WSW,246,8.1,8.1,33,0.00,,---,0.00,VWS V14.01,2013-02-17 06:22:00,
2013-02-16 22:27:00,34.9,8.7,27.46,WSW,237,6.3,6.3,33,0.00,,---,0.00,VWS V14.01,2013-02-17 06:27:00,
2013-02-16 22:32:00,34.7,8.6,27.46,WSW,255,2.7,2.7,33,0.00,,---,0.00,VWS V14.01,2013-02-17 06:32:00,
2013-02-16 22:37:00,34.7,8.6,27.46,West,269,4.0,4.0,33,0.00,,---,0.00,VWS V14.01,2013-02-17 06:37:00,
2013-02-16 22:42:00,34.7,8.6,27.46,West,265,5.4,5.4,33,0.00,,---,0.00,VWS V14.01,2013-02-17 06:42:00,
2013-02-16 22:47:00,34.5,8.4,27.46,SW,218,5.8,5.8,33,0.00,,---,0.00,VWS V14.01,2013-02-17 06:47:00,
2013-02-16 22:52:00,34.5,8.4,27.46,WSW,255,4.0,5.4,33,0.00,,---,0.00,VWS V14.01,2013-02-17 06:52:00,
2013-02-16 22:57:00,34.5,8.4,27.46,WSW,237,4.0,4.0,33,0.00,,---,0.00,VWS V14.01,2013-02-17 06:57:00,
2013-02-16 23:02:00,34.5,8.4,27.46,WSW,240,5.8,5.8,33,0.00,,---,0.00,VWS V14.01,2013-02-17 07:02:00,
2013-02-16 23:07:00,34.3,8.2,27.46,SW,225,5.4,5.4,33,0.00,,---,0.00,VWS V14.01,2013-02-17 07:07:00,
2013-02-16 23:12:00,34.3,8.2,27.46,SW,217,4.0,4.0,33,0.00,,---,0.00,VWS V14.01,2013-02-17 07:12:00,
2013-02-16 23:17:00,34.2,8.1,27.46,WSW,257,5.8,6.3,33,0.00,,---,0.00,VWS V14.01,2013-02-17 07:17:00,
2013-02-16 23:22:00,34.0,7.9,27.46,SW,232,5.8,5.8,33,0.00,,---,0.00,VWS V14.01,2013-02-17 07:22:00,
2013-02-16 23:27:00,33.8,7.8,27.46,SW,221,5.8,6.3,33,0.00,,---,0.00,VWS V14.01,2013-02-17 07:27:00,
2013-02-16 23:32:00,33.6,8.3,27.46,SW,227,5.8,6.3,34,0.00,,---,0.00,VWS V14.01,2013-02-17 07:32:00,
2013-02-16 23:37:00,33.4,8.1,27.46,SW,217,8.1,8.1,34,0.00,,---,0.00,VWS V14.01,2013-02-17 07:37:00,
2013-02-16 23:42:00,33.4,8.1,27.46,SW,225,6.3,7.6,34,0.00,,---,0.00,VWS V14.01,2013-02-17 07:42:00,
2013-02-16 23:47:00,33.4,8.1,27.46,WSW,239,8.1,8.1,34,0.00,,---,0.00,VWS V14.01,2013-02-17 07:47:00,
2013-02-16 23:52:00,33.3,7.9,27.46,SW,231,7.6,8.1,34,0.00,,---,0.00,VWS V14.01,2013-02-17 07:52:00,
2013-02-16 23:57:00,33.3,7.9,27.46,SW,224,8.3,8.7,34,0.00,,---,0.00,VWS V14.01,2013-02-17 07:57:00,